Time;durP1;ratioP1;P1;durP2;ratioP2;P2;SDS_P1;SDS_P2;PMS_P1;PMS_P2;Temp;Humidity;BMP_temperature;BMP_pressure;BME280_temperature;BME280_humidity;BME280_pressure;Samples;Min_cycle;Max_cycle;Signal;HPM_P1;HPM_P2
2021/01/26 00:02:14;;;;;;;;;;;2.60;99.90;;;;;;5095133;28;19907;-84
2021/01/26 00:04:39;;;;;;;;;;;2.70;99.90;;;;;;5113781;27;19971;-84
2021/01/26 00:07:05;;;;;;;;;;;2.70;99.90;;;;;;5100318;28;19911;-84
2021/01/26 00:09:31;;;;;;;;;;;2.70;99.90;;;;;;5115837;28;19908;-85
2021/01/26 00:11:57;;;;;;;;;;;2.70;99.90;;;;;;5097683;28;19908;-84
2021/01/26 00:14:22;;;;;;;;;;;2.70;99.90;;;;;;5114790;28;19907;-85
2021/01/26 00:16:48;;;;;;;;;;;2.70;99.90;;;;;;5114062;28;20335;-84
2021/01/26 00:19:13;;;;;;;;;;;2.70;99.90;;;;;;5096735;28;19991;-85
2021/01/26 00:21:39;;;;;;;;;;;2.70;99.90;;;;;;5095356;28;19908;-85
2021/01/26 00:24:04;;;;;;;;;;;2.70;99.90;;;;;;5111301;28;19908;-84
2021/01/26 00:26:30;;;;;;;;;;;2.70;99.90;;;;;;5097034;28;19912;-84
2021/01/26 00:28:56;;;;;;;;;;;2.70;99.90;;;;;;5115252;28;19915;-83
2021/01/26 00:31:21;;;;;;;;;;;2.70;99.90;;;;;;5095212;28;19914;-84
2021/01/26 00:33:46;;;;;;;;;;;2.90;99.90;;;;;;5094560;28;19916;-83
2021/01/26 00:36:12;;;;;;;;;;;2.90;99.90;;;;;;5117441;28;19918;-84
2021/01/26 00:38:37;;;;;;;;;;;2.90;99.90;;;;;;5094793;28;19916;-84
2021/01/26 00:41:03;;;;;;;;;;;3.00;99.90;;;;;;5100885;28;20386;-85
2021/01/26 00:43:28;;;;;;;;;;;3.00;99.90;;;;;;5101628;28;19915;-84
2021/01/26 00:45:54;;;;;;;;;;;3.00;99.90;;;;;;5116697;28;19918;-84
2021/01/26 00:48:19;;;;;;;;;;;3.00;99.90;;;;;;5117964;27;19930;-84
2021/01/26 00:50:45;;;;;;;;;;;3.00;99.90;;;;;;5101590;28;19912;-84
2021/01/26 00:53:11;;;;;;;;;;;3.00;99.90;;;;;;5100630;27;20319;-84
2021/01/26 00:55:37;;;;;;;;;;;3.10;99.90;;;;;;5118627;27;20271;-84
2021/01/26 00:58:02;;;;;;;;;;;3.10;99.90;;;;;;5118900;27;20011;-84
2021/01/26 01:00:32;;;;;;;;;;;3.20;99.90;;;;;;5104701;27;19963;-83
2021/01/26 01:02:58;;;;;;;;;;;3.30;99.90;;;;;;5098091;28;19908;-84
2021/01/26 01:05:24;;;;;;;;;;;3.30;99.90;;;;;;5098607;28;20442;-83
2021/01/26 01:07:49;;;;;;;;;;;3.40;99.90;;;;;;5119005;27;20374;-84
2021/01/26 01:10:17;;;;;;;;;;;3.40;99.90;;;;;;5102503;27;19908;-83
2021/01/26 01:12:43;;;;;;;;;;;3.50;99.90;;;;;;5118238;27;19914;-83
2021/01/26 01:15:09;;;;;;;;;;;3.50;99.90;;;;;;5099129;27;19911;-82
2021/01/26 01:17:34;;;;;;;;;;;3.60;99.90;;;;;;5100442;27;19907;-83
2021/01/26 01:20:00;;;;;;;;;;;3.60;99.90;;;;;;5097547;28;19919;-83
2021/01/26 01:22:26;;;;;;;;;;;3.60;99.90;;;;;;5097843;28;19915;-83
2021/01/26 01:24:51;;;;;;;;;;;3.60;99.90;;;;;;5097768;28;19972;-83
2021/01/26 01:27:17;;;;;;;;;;;3.60;99.90;;;;;;5102054;27;20379;-84
2021/01/26 01:29:42;;;;;;;;;;;3.50;99.90;;;;;;5116509;27;20424;-83
2021/01/26 01:32:08;;;;;;;;;;;3.50;99.90;;;;;;5097911;28;19951;-83
2021/01/26 01:34:33;;;;;;;;;;;3.50;99.90;;;;;;5097494;28;19961;-83
2021/01/26 01:36:59;;;;;;;;;;;3.50;99.90;;;;;;5097393;28;19962;-82
2021/01/26 01:39:24;;;;;;;;;;;3.50;99.90;;;;;;5100743;27;19908;-83
2021/01/26 01:41:50;;;;;;;;;;;3.50;99.90;;;;;;5117445;27;19908;-83
2021/01/26 01:44:15;;;;;;;;;;;3.50;99.90;;;;;;5098707;28;19947;-83
2021/01/26 01:46:52;;;;;;;;;;;3.50;99.90;;;;;;5116788;27;19919;-83
2021/01/26 01:49:20;;;;;;;;;;;3.40;99.90;;;;;;5116124;28;19912;-83
2021/01/26 01:51:46;;;;;;;;;;;3.40;99.90;;;;;;5134972;27;19919;-83
2021/01/26 01:54:16;;;;;;;;;;;3.40;99.90;;;;;;5124865;27;19908;-83
2021/01/26 01:56:44;;;;;;;;;;;3.40;99.90;;;;;;5100154;27;20071;-83
2021/01/26 01:59:20;;;;;;;;;;;3.40;99.90;;;;;;5116683;27;20057;-83
2021/01/26 02:01:47;;;;;;;;;;;3.40;99.90;;;;;;5098825;27;20290;-83
2021/01/26 02:04:14;;;;;;;;;;;3.50;99.90;;;;;;5097591;28;19908;-83
2021/01/26 02:06:42;;;;;;;;;;;3.50;99.90;;;;;;5098529;27;19912;-83
2021/01/26 02:09:08;;;;;;;;;;;3.50;99.90;;;;;;5118552;27;20393;-82
2021/01/26 02:11:34;;;;;;;;;;;3.50;99.90;;;;;;5117970;27;19988;-83
2021/01/26 02:14:00;;;;;;;;;;;3.50;99.90;;;;;;5098649;28;19943;-83
2021/01/26 02:16:28;;;;;;;;;;;3.50;99.90;;;;;;5098226;28;20378;-83
2021/01/26 02:19:16;;;;;;;;;;;3.40;99.90;;;;;;5118354;27;19915;-83
2021/01/26 02:21:57;;;;;;;;;;;3.40;99.90;;;;;;5107327;27;19908;-82
2021/01/26 02:24:22;;;;;;;;;;;3.40;99.90;;;;;;5127948;27;19942;-82
2021/01/26 02:27:16;;;;;;;;;;;3.40;99.90;;;;;;5098960;28;19947;-82
2021/01/26 02:30:02;;;;;;;;;;;3.40;99.90;;;;;;5115499;27;19908;-83
2021/01/26 02:32:45;;;;;;;;;;;3.30;99.90;;;;;;5096888;28;20536;-82
2021/01/26 02:35:34;;;;;;;;;;;3.40;99.90;;;;;;5117373;27;19908;-82
2021/01/26 02:38:07;;;;;;;;;;;3.40;99.90;;;;;;5098566;27;19914;-82
2021/01/26 02:40:51;;;;;;;;;;;3.40;99.90;;;;;;5116386;27;20012;-82
2021/01/26 02:43:49;;;;;;;;;;;3.40;99.90;;;;;;5117209;27;19952;-83
2021/01/26 02:46:33;;;;;;;;;;;3.30;99.90;;;;;;5071551;27;19976;-82
2021/01/26 02:49:04;;;;;;;;;;;3.30;99.90;;;;;;5114784;27;19937;-82
2021/01/26 02:51:33;;;;;;;;;;;3.20;99.90;;;;;;5098313;27;20007;-82
2021/01/26 02:54:06;;;;;;;;;;;3.10;99.90;;;;;;5098587;28;19922;-82
2021/01/26 02:56:38;;;;;;;;;;;3.10;99.90;;;;;;5097665;27;20025;-83
2021/01/26 02:59:07;;;;;;;;;;;3.00;99.90;;;;;;5114409;27;19957;-81
2021/01/26 03:01:38;;;;;;;;;;;3.00;99.90;;;;;;5096646;27;19947;-82
2021/01/26 03:04:06;;;;;;;;;;;3.00;99.90;;;;;;5096626;28;19908;-82
2021/01/26 03:06:33;;;;;;;;;;;3.00;99.90;;;;;;5114087;27;20420;-82
2021/01/26 03:09:11;;;;;;;;;;;3.00;99.90;;;;;;5116608;27;20030;-82
2021/01/26 03:11:40;;;;;;;;;;;3.10;99.90;;;;;;5098232;27;19908;-82
2021/01/26 03:14:12;;;;;;;;;;;3.10;99.90;;;;;;5116900;27;20430;-82
2021/01/26 03:16:38;;;;;;;;;;;3.20;99.90;;;;;;5115335;27;19908;-82
2021/01/26 03:19:08;;;;;;;;;;;3.20;99.90;;;;;;5097202;28;19918;-82
2021/01/26 03:21:36;;;;;;;;;;;3.20;99.90;;;;;;5096076;27;20271;-82
2021/01/26 03:24:03;;;;;;;;;;;3.20;99.90;;;;;;5116926;27;19991;-81
2021/01/26 03:26:29;;;;;;;;;;;3.20;99.90;;;;;;5113608;28;20378;-82
2021/01/26 03:28:57;;;;;;;;;;;3.20;99.90;;;;;;5115925;27;19915;-82
2021/01/26 03:31:27;;;;;;;;;;;3.20;99.90;;;;;;5114648;27;20387;-82
2021/01/26 03:33:53;;;;;;;;;;;3.20;99.90;;;;;;5113813;28;19940;-81
2021/01/26 03:36:19;;;;;;;;;;;3.20;99.90;;;;;;5095317;28;19912;-81
2021/01/26 03:38:45;;;;;;;;;;;3.20;99.90;;;;;;5115804;27;19907;-82
2021/01/26 03:41:11;;;;;;;;;;;3.20;99.90;;;;;;5106536;27;20328;-82
2021/01/26 03:43:36;;;;;;;;;;;3.20;99.90;;;;;;5096429;28;19908;-82
2021/01/26 03:46:12;;;;;;;;;;;3.20;99.90;;;;;;5095158;28;19912;-82
2021/01/26 03:48:47;;;;;;;;;;;3.20;99.90;;;;;;5113260;27;19908;-82
2021/01/26 03:51:24;;;;;;;;;;;3.20;99.90;;;;;;5119376;27;19907;-82
2021/01/26 03:54:15;;;;;;;;;;;3.20;99.90;;;;;;5116296;27;19916;-82
2021/01/26 03:56:41;;;;;;;;;;;3.30;99.90;;;;;;5115047;28;19908;-82
2021/01/26 03:59:17;;;;;;;;;;;3.30;99.90;;;;;;5114625;27;20419;-82
2021/01/26 04:02:01;;;;;;;;;;;3.40;99.90;;;;;;5115302;27;20359;-82
2021/01/26 04:04:37;;;;;;;;;;;3.40;99.90;;;;;;5098365;28;19978;-81
2021/01/26 04:07:05;;;;;;;;;;;3.50;99.90;;;;;;5113271;28;20279;-82
2021/01/26 04:09:36;;;;;;;;;;;3.50;99.90;;;;;;5094681;28;20313;-82
2021/01/26 04:12:10;;;;;;;;;;;3.50;99.90;;;;;;5117443;28;19914;-82
2021/01/26 04:14:40;;;;;;;;;;;3.50;99.90;;;;;;5114959;27;19953;-82
2021/01/26 04:17:10;;;;;;;;;;;3.50;99.90;;;;;;5114306;28;19950;-82
2021/01/26 04:19:41;;;;;;;;;;;3.40;99.90;;;;;;5097006;28;19974;-82
2021/01/26 04:22:08;;;;;;;;;;;3.40;99.90;;;;;;5105992;28;19915;-81
2021/01/26 04:24:35;;;;;;;;;;;3.40;99.90;;;;;;5094607;28;20363;-81
2021/01/26 04:27:05;;;;;;;;;;;3.40;99.90;;;;;;5106526;28;20363;-81
2021/01/26 04:29:31;;;;;;;;;;;3.50;99.90;;;;;;5113924;28;19908;-81
2021/01/26 04:31:57;;;;;;;;;;;3.50;99.90;;;;;;5101828;28;19908;-81
2021/01/26 04:34:23;;;;;;;;;;;3.50;99.90;;;;;;5119060;28;19908;-82
2021/01/26 04:36:48;;;;;;;;;;;3.40;99.90;;;;;;5095414;28;20351;-82
2021/01/26 04:39:14;;;;;;;;;;;3.50;99.90;;;;;;5114828;28;19915;-82
2021/01/26 04:41:55;;;;;;;;;;;3.50;99.90;;;;;;5116348;28;19915;-81
2021/01/26 04:44:31;;;;;;;;;;;3.50;99.90;;;;;;5095849;28;19907;-82
2021/01/26 04:47:06;;;;;;;;;;;3.50;99.90;;;;;;5113589;28;19911;-82
2021/01/26 04:49:34;;;;;;;;;;;3.50;99.90;;;;;;5113152;28;20351;-81
2021/01/26 04:52:05;;;;;;;;;;;3.50;99.90;;;;;;5115524;28;20422;-81
2021/01/26 04:54:37;;;;;;;;;;;3.40;99.90;;;;;;5115006;28;19908;-81
2021/01/26 04:57:02;;;;;;;;;;;3.40;99.90;;;;;;5114549;28;19908;-81
2021/01/26 04:59:33;;;;;;;;;;;3.40;99.90;;;;;;5114185;28;19968;-82
2021/01/26 05:02:17;;;;;;;;;;;3.40;99.90;;;;;;5114086;28;19911;-81
2021/01/26 05:04:50;;;;;;;;;;;3.40;99.90;;;;;;5095349;28;19923;-81
2021/01/26 05:07:18;;;;;;;;;;;3.40;99.90;;;;;;5112665;28;19912;-81
2021/01/26 05:09:53;;;;;;;;;;;3.50;99.90;;;;;;5104467;28;19914;-81
2021/01/26 05:12:21;;;;;;;;;;;3.50;99.90;;;;;;5094257;28;19994;-81
2021/01/26 05:14:49;;;;;;;;;;;3.60;99.90;;;;;;5114565;28;20022;-81
2021/01/26 05:17:17;;;;;;;;;;;3.50;99.90;;;;;;5105505;28;20386;-82
2021/01/26 05:19:45;;;;;;;;;;;3.60;99.90;;;;;;5112927;28;19907;-81
2021/01/26 05:22:29;;;;;;;;;;;3.60;99.90;;;;;;5097194;28;19926;-81
2021/01/26 05:25:01;;;;;;;;;;;3.50;99.90;;;;;;5112413;28;19915;-81
2021/01/26 05:27:27;;;;;;;;;;;3.50;99.90;;;;;;5117110;28;19919;-81
2021/01/26 05:29:53;;;;;;;;;;;3.40;99.90;;;;;;5113045;28;19951;-81
2021/01/26 05:32:18;;;;;;;;;;;3.40;99.90;;;;;;5114332;28;19911;-81
2021/01/26 05:34:44;;;;;;;;;;;3.40;99.90;;;;;;5098109;28;19915;-81
2021/01/26 05:37:11;;;;;;;;;;;3.40;99.90;;;;;;5116110;28;20501;-81
2021/01/26 05:39:43;;;;;;;;;;;3.40;99.90;;;;;;5101603;27;19961;-81
2021/01/26 05:42:10;;;;;;;;;;;3.40;99.90;;;;;;5099496;28;20010;-81
2021/01/26 05:44:36;;;;;;;;;;;3.40;99.90;;;;;;5118127;27;20347;-81
2021/01/26 05:47:20;;;;;;;;;;;3.40;99.90;;;;;;5116727;27;19918;-81
2021/01/26 05:49:45;;;;;;;;;;;3.50;99.90;;;;;;5116434;27;19943;-81
2021/01/26 05:52:11;;;;;;;;;;;3.50;99.90;;;;;;5100332;28;19915;-81
2021/01/26 05:54:43;;;;;;;;;;;3.60;99.90;;;;;;5108769;27;20277;-81
2021/01/26 05:57:09;;;;;;;;;;;3.60;99.90;;;;;;5099355;27;19919;-81
2021/01/26 05:59:36;;;;;;;;;;;3.60;99.90;;;;;;5110702;27;19915;-81
2021/01/26 06:02:11;;;;;;;;;;;3.60;99.90;;;;;;5098846;28;19956;-81
2021/01/26 06:04:38;;;;;;;;;;;3.70;99.90;;;;;;5096977;28;19908;-81
2021/01/26 06:07:04;;;;;;;;;;;3.70;99.90;;;;;;5116048;27;19912;-81
2021/01/26 06:09:40;;;;;;;;;;;3.70;99.90;;;;;;5117832;27;19964;-81
2021/01/26 06:12:07;;;;;;;;;;;3.70;99.90;;;;;;5099461;28;20317;-81
2021/01/26 06:14:32;;;;;;;;;;;3.70;99.90;;;;;;5117160;27;19908;-81
2021/01/26 06:17:03;;;;;;;;;;;3.70;99.90;;;;;;5099827;27;20275;-81
2021/01/26 06:19:28;;;;;;;;;;;3.70;99.90;;;;;;5118115;27;19908;-80
2021/01/26 06:21:54;;;;;;;;;;;3.60;99.90;;;;;;5116207;27;19915;-80
2021/01/26 06:24:21;;;;;;;;;;;3.60;99.90;;;;;;5096939;28;20374;-81
2021/01/26 06:27:08;;;;;;;;;;;3.60;99.90;;;;;;5115009;28;19916;-81
2021/01/26 06:29:34;;;;;;;;;;;3.60;99.90;;;;;;5113493;28;19915;-80
2021/01/26 06:32:20;;;;;;;;;;;3.70;99.90;;;;;;5097329;28;19912;-81
2021/01/26 06:34:56;;;;;;;;;;;3.70;99.90;;;;;;5096007;28;19999;-81
2021/01/26 06:37:33;;;;;;;;;;;3.70;99.90;;;;;;5095656;28;19919;-81
2021/01/26 06:40:01;;;;;;;;;;;3.70;99.90;;;;;;5135542;27;19929;-80
2021/01/26 06:42:45;;;;;;;;;;;3.80;99.90;;;;;;5134896;27;20006;-80
2021/01/26 06:45:30;;;;;;;;;;;3.80;99.90;;;;;;5134595;27;19919;-80
2021/01/26 06:48:15;;;;;;;;;;;3.80;99.90;;;;;;5117105;27;19966;-80
2021/01/26 06:50:50;;;;;;;;;;;3.80;99.90;;;;;;5135242;27;20416;-81
2021/01/26 06:53:22;;;;;;;;;;;3.80;99.90;;;;;;5135669;27;19914;-81
2021/01/26 06:56:04;;;;;;;;;;;3.80;99.90;;;;;;5117212;27;20009;-81
2021/01/26 06:58:35;;;;;;;;;;;3.80;99.90;;;;;;5117123;27;19911;-81
2021/01/26 07:01:22;;;;;;;;;;;3.80;99.90;;;;;;5135400;27;19919;-80
2021/01/26 07:04:06;;;;;;;;;;;3.80;99.90;;;;;;5135267;27;19908;-81
2021/01/26 07:06:31;;;;;;;;;;;3.80;99.90;;;;;;5135439;27;20014;-80
2021/01/26 07:09:01;;;;;;;;;;;3.80;99.90;;;;;;5135327;27;19947;-80
2021/01/26 07:11:52;;;;;;;;;;;3.80;99.90;;;;;;5116781;27;19907;-81
2021/01/26 07:14:37;;;;;;;;;;;3.80;99.90;;;;;;5135093;27;19950;-80
2021/01/26 07:17:07;;;;;;;;;;;3.80;99.90;;;;;;5083151;27;19998;-81
2021/01/26 07:19:55;;;;;;;;;;;3.80;99.90;;;;;;5127651;27;19913;-80
2021/01/26 07:22:33;;;;;;;;;;;3.90;99.90;;;;;;5096285;28;19929;-80
2021/01/26 07:25:19;;;;;;;;;;;3.80;99.90;;;;;;5096833;28;20276;-80
2021/01/26 07:28:03;;;;;;;;;;;3.90;99.90;;;;;;5113606;28;19959;-80
2021/01/26 07:30:34;;;;;;;;;;;3.90;99.90;;;;;;5096453;28;19911;-80
2021/01/26 07:33:08;;;;;;;;;;;3.90;99.90;;;;;;5114592;28;19916;-80
2021/01/26 07:35:53;;;;;;;;;;;3.90;99.90;;;;;;5096141;28;19912;-80
2021/01/26 07:38:24;;;;;;;;;;;3.90;99.90;;;;;;5096184;28;19911;-81
2021/01/26 07:40:57;;;;;;;;;;;3.90;99.90;;;;;;5118591;27;19911;-80
2021/01/26 07:43:30;;;;;;;;;;;3.90;99.90;;;;;;5122980;27;20405;-80
2021/01/26 07:46:04;;;;;;;;;;;3.90;99.90;;;;;;5116204;27;19914;-80
2021/01/26 07:48:33;;;;;;;;;;;3.90;99.90;;;;;;5113214;27;19915;-81
2021/01/26 07:51:02;;;;;;;;;;;3.90;99.90;;;;;;5112878;27;19922;-82
2021/01/26 07:53:40;;;;;;;;;;;3.90;99.90;;;;;;5113405;27;19914;-82
2021/01/26 07:56:17;;;;;;;;;;;3.90;99.90;;;;;;5124110;27;19912;-82
2021/01/26 07:58:44;;;;;;;;;;;3.90;99.90;;;;;;5121902;27;20370;-82
2021/01/26 08:01:09;;;;;;;;;;;3.90;99.90;;;;;;5124141;27;19924;-82
2021/01/26 08:03:35;;;;;;;;;;;3.90;99.90;;;;;;5131526;27;19907;-82
2021/01/26 08:06:00;;;;;;;;;;;3.90;99.90;;;;;;5115835;27;19973;-82
2021/01/26 08:08:31;;;;;;;;;;;3.90;99.90;;;;;;5134313;27;19908;-82
2021/01/26 08:11:20;;;;;;;;;;;3.90;99.90;;;;;;5115750;27;20324;-82
2021/01/26 08:13:53;;;;;;;;;;;3.90;99.90;;;;;;5115887;28;19935;-82
2021/01/26 08:16:30;;;;;;;;;;;3.90;99.90;;;;;;5134245;27;19907;-81
2021/01/26 08:19:00;;;;;;;;;;;3.90;99.90;;;;;;5102725;28;19915;-80
2021/01/26 08:21:30;;;;;;;;;;;4.00;99.90;;;;;;5087223;28;20402;-79
2021/01/26 08:24:14;;;;;;;;;;;3.90;99.90;;;;;;5100207;28;19912;-80
2021/01/26 08:26:40;;;;;;;;;;;4.00;99.90;;;;;;5095053;28;19916;-80
2021/01/26 08:29:06;;;;;;;;;;;4.00;99.90;;;;;;5119573;28;20260;-80
2021/01/26 08:31:37;;;;;;;;;;;4.00;99.90;;;;;;5124362;28;19911;-80
2021/01/26 08:34:20;;;;;;;;;;;4.00;99.90;;;;;;5122295;28;19908;-80
2021/01/26 08:36:46;;;;;;;;;;;4.00;99.90;;;;;;5105866;28;19914;-80
2021/01/26 08:39:14;;;;;;;;;;;4.00;99.90;;;;;;5123515;28;19994;-80
2021/01/26 08:41:43;;;;;;;;;;;4.00;99.90;;;;;;5104065;28;20359;-81
2021/01/26 08:44:29;;;;;;;;;;;4.00;99.90;;;;;;5096989;28;19961;-81
2021/01/26 08:46:54;;;;;;;;;;;4.00;99.90;;;;;;5107387;28;19911;-81
2021/01/26 08:49:22;;;;;;;;;;;3.90;99.90;;;;;;5116503;28;20263;-81
2021/01/26 08:51:47;;;;;;;;;;;3.90;99.90;;;;;;5113195;28;20351;-81
2021/01/26 08:54:32;;;;;;;;;;;3.90;99.90;;;;;;5118696;28;20044;-81
2021/01/26 08:56:57;;;;;;;;;;;4.00;99.90;;;;;;5109979;28;19936;-81
2021/01/26 08:59:29;;;;;;;;;;;4.00;99.90;;;;;;5121590;28;20344;-81
2021/01/26 09:01:54;;;;;;;;;;;4.00;99.90;;;;;;5094932;28;19908;-80
2021/01/26 09:04:29;;;;;;;;;;;4.00;99.90;;;;;;5095071;28;19908;-81
2021/01/26 09:06:54;;;;;;;;;;;4.00;99.90;;;;;;5114632;28;20010;-80
2021/01/26 09:09:23;;;;;;;;;;;4.10;99.90;;;;;;5136717;27;19960;-81
2021/01/26 09:12:05;;;;;;;;;;;4.10;99.90;;;;;;5120812;27;19908;-81
2021/01/26 09:14:41;;;;;;;;;;;4.10;99.90;;;;;;5126467;27;19912;-80
2021/01/26 09:17:09;;;;;;;;;;;4.20;99.90;;;;;;5118907;27;19908;-81
2021/01/26 09:19:43;;;;;;;;;;;4.20;99.90;;;;;;5099672;28;19946;-81
2021/01/26 09:22:29;;;;;;;;;;;4.30;99.90;;;;;;5098558;28;19908;-81
2021/01/26 09:24:56;;;;;;;;;;;4.30;99.90;;;;;;5105409;27;20014;-81
2021/01/26 09:27:22;;;;;;;;;;;4.30;99.90;;;;;;5107274;27;19911;-81
2021/01/26 09:30:00;;;;;;;;;;;4.40;99.90;;;;;;5120137;27;19908;-81
2021/01/26 09:32:26;;;;;;;;;;;4.40;99.90;;;;;;5116888;28;19931;-81
2021/01/26 09:34:51;;;;;;;;;;;4.40;99.90;;;;;;5098407;28;20375;-81
2021/01/26 09:37:24;;;;;;;;;;;4.40;99.90;;;;;;5119885;27;19934;-81
2021/01/26 09:39:50;;;;;;;;;;;4.40;99.90;;;;;;5125538;27;19912;-81
2021/01/26 09:42:22;;;;;;;;;;;4.50;99.90;;;;;;5124960;27;19914;-81
2021/01/26 09:45:02;;;;;;;;;;;4.50;99.90;;;;;;5125386;27;19907;-81
2021/01/26 09:47:28;;;;;;;;;;;4.60;99.90;;;;;;5098032;28;19911;-81
2021/01/26 09:50:12;;;;;;;;;;;4.60;99.90;;;;;;5130025;27;20426;-81
2021/01/26 09:52:41;;;;;;;;;;;4.60;99.90;;;;;;5115044;27;19974;-81
2021/01/26 09:55:09;;;;;;;;;;;4.60;99.90;;;;;;5098104;28;20014;-82
2021/01/26 09:57:35;;;;;;;;;;;4.70;99.90;;;;;;5107032;27;19911;-82
2021/01/26 10:00:04;;;;;;;;;;;4.70;99.90;;;;;;5125423;27;20362;-81
2021/01/26 10:02:30;;;;;;;;;;;4.80;99.90;;;;;;5123222;27;19919;-82
2021/01/26 10:04:55;;;;;;;;;;;4.80;99.90;;;;;;5115067;27;19911;-81
2021/01/26 10:07:21;;;;;;;;;;;4.80;99.90;;;;;;5135962;27;19964;-81
2021/01/26 10:09:47;;;;;;;;;;;4.90;99.90;;;;;;5112562;28;19969;-81
2021/01/26 10:12:22;;;;;;;;;;;4.90;99.90;;;;;;5133372;27;19907;-81
2021/01/26 10:15:06;;;;;;;;;;;5.00;99.90;;;;;;5108093;27;19915;-81
2021/01/26 10:17:32;;;;;;;;;;;5.10;99.90;;;;;;5114427;28;19912;-82
2021/01/26 10:19:57;;;;;;;;;;;5.10;99.90;;;;;;5117828;27;20367;-82
2021/01/26 10:22:23;;;;;;;;;;;5.10;99.90;;;;;;5117591;27;19908;-81
2021/01/26 10:24:49;;;;;;;;;;;5.20;99.90;;;;;;5117180;27;19911;-82
2021/01/26 10:27:22;;;;;;;;;;;5.20;99.90;;;;;;5135843;27;19919;-82
2021/01/26 10:29:48;;;;;;;;;;;5.20;99.90;;;;;;5117114;27;19908;-82
2021/01/26 10:32:33;;;;;;;;;;;5.20;99.90;;;;;;5135316;27;20645;-82
2021/01/26 10:34:59;;;;;;;;;;;5.30;99.90;;;;;;5117239;27;19908;-82
2021/01/26 10:37:24;;;;;;;;;;;5.40;99.90;;;;;;5135610;27;20267;-82
2021/01/26 10:40:05;;;;;;;;;;;5.40;99.90;;;;;;5117372;27;19907;-82
2021/01/26 10:42:31;;;;;;;;;;;5.50;99.90;;;;;;5114263;27;19908;-82
2021/01/26 10:44:56;;;;;;;;;;;5.50;99.90;;;;;;5115272;28;19908;-82
2021/01/26 10:47:32;;;;;;;;;;;5.60;99.90;;;;;;5114478;28;19912;-82
2021/01/26 10:49:59;;;;;;;;;;;5.70;99.90;;;;;;5115180;28;20337;-82
2021/01/26 10:52:34;;;;;;;;;;;5.80;99.90;;;;;;5096784;28;19908;-81
2021/01/26 10:54:59;;;;;;;;;;;5.90;99.90;;;;;;5115036;28;19999;-82
2021/01/26 10:57:25;;;;;;;;;;;6.00;99.90;;;;;;5114559;28;20007;-82
2021/01/26 10:59:50;;;;;;;;;;;6.20;99.90;;;;;;5114856;28;19920;-82
2021/01/26 11:02:16;;;;;;;;;;;6.50;99.90;;;;;;5096338;28;19970;-82
2021/01/26 11:04:41;;;;;;;;;;;6.60;99.90;;;;;;5115120;28;19919;-81
2021/01/26 11:07:06;;;;;;;;;;;6.70;99.90;;;;;;5114622;28;19998;-81
2021/01/26 11:09:32;;;;;;;;;;;6.70;99.90;;;;;;5115911;27;19954;-81
2021/01/26 11:11:57;;;;;;;;;;;6.80;99.90;;;;;;5115837;27;20313;-81
2021/01/26 11:14:23;;;;;;;;;;;6.90;99.90;;;;;;5117031;27;20273;-81
2021/01/26 11:16:48;;;;;;;;;;;6.90;99.90;;;;;;5134987;27;19912;-81
2021/01/26 11:19:15;;;;;;;;;;;6.90;99.90;;;;;;5100402;28;19949;-81
2021/01/26 11:21:40;;;;;;;;;;;6.90;99.90;;;;;;5114355;28;19908;-81
2021/01/26 11:24:10;;;;;;;;;;;7.00;99.90;;;;;;5094416;28;19987;-81
2021/01/26 11:26:35;;;;;;;;;;;7.00;99.90;;;;;;5114295;28;20015;-81
2021/01/26 11:29:02;;;;;;;;;;;7.00;99.90;;;;;;5103610;28;19947;-81
2021/01/26 11:31:28;;;;;;;;;;;7.10;99.90;;;;;;5113946;28;19912;-81
2021/01/26 11:33:53;;;;;;;;;;;7.00;99.90;;;;;;5094037;28;19965;-81
2021/01/26 11:36:19;;;;;;;;;;;7.00;99.90;;;;;;5102616;28;20377;-81
2021/01/26 11:38:45;;;;;;;;;;;6.80;99.90;;;;;;5095820;28;19952;-81
2021/01/26 11:41:10;;;;;;;;;;;6.60;99.90;;;;;;5095961;28;19984;-81
2021/01/26 11:43:36;;;;;;;;;;;6.40;99.90;;;;;;5114128;28;19912;-81
2021/01/26 11:46:02;;;;;;;;;;;6.50;99.90;;;;;;5096000;28;19915;-81
2021/01/26 11:48:29;;;;;;;;;;;6.80;99.90;;;;;;5114015;28;19915;-81
2021/01/26 11:50:55;;;;;;;;;;;7.00;99.90;;;;;;5095763;28;19908;-81
2021/01/26 11:53:21;;;;;;;;;;;6.80;99.90;;;;;;5095741;28;20026;-81
2021/01/26 11:55:47;;;;;;;;;;;6.60;99.90;;;;;;5114110;28;19965;-81
2021/01/26 11:58:12;;;;;;;;;;;6.50;99.90;;;;;;5114154;28;20246;-81
2021/01/26 12:00:38;;;;;;;;;;;6.30;99.90;;;;;;5095523;28;19969;-81
2021/01/26 12:03:04;;;;;;;;;;;6.20;99.90;;;;;;5113789;28;19953;-81
2021/01/26 12:05:30;;;;;;;;;;;6.10;99.90;;;;;;5113767;28;20347;-81
2021/01/26 12:07:56;;;;;;;;;;;6.00;99.90;;;;;;5116683;28;19920;-81
2021/01/26 12:10:22;;;;;;;;;;;6.10;99.90;;;;;;5119206;27;19919;-80
2021/01/26 12:12:48;;;;;;;;;;;6.10;99.90;;;;;;5114417;27;19907;-81
2021/01/26 12:15:16;;;;;;;;;;;6.00;99.90;;;;;;5106147;28;19912;-81
2021/01/26 12:17:41;;;;;;;;;;;6.10;99.90;;;;;;5125357;27;19908;-81
2021/01/26 12:20:07;;;;;;;;;;;6.30;99.90;;;;;;5114283;28;19919;-81
2021/01/26 12:22:32;;;;;;;;;;;6.40;99.90;;;;;;5109723;28;19912;-81
2021/01/26 12:24:58;;;;;;;;;;;6.40;99.90;;;;;;5117331;28;19946;-81
2021/01/26 12:27:23;;;;;;;;;;;6.40;99.90;;;;;;5098125;28;19918;-81
2021/01/26 12:29:49;;;;;;;;;;;6.40;99.90;;;;;;5117109;28;19916;-81
2021/01/26 12:32:14;;;;;;;;;;;6.40;99.90;;;;;;5113307;28;19934;-81
2021/01/26 12:34:40;;;;;;;;;;;6.40;99.90;;;;;;5094308;28;19912;-81
2021/01/26 12:37:05;;;;;;;;;;;6.30;99.90;;;;;;5093453;28;19907;-81
2021/01/26 12:39:30;;;;;;;;;;;6.30;99.90;;;;;;5115481;28;19908;-81
2021/01/26 12:41:56;;;;;;;;;;;6.20;99.90;;;;;;5098813;28;20368;-81
2021/01/26 12:44:21;;;;;;;;;;;6.20;99.90;;;;;;5117763;27;19953;-81
2021/01/26 12:46:47;;;;;;;;;;;6.30;99.90;;;;;;5099394;28;19951;-81
2021/01/26 12:49:12;;;;;;;;;;;6.40;99.90;;;;;;5098351;28;19915;-81
2021/01/26 12:51:38;;;;;;;;;;;6.40;99.90;;;;;;5117605;27;19907;-81
2021/01/26 12:54:04;;;;;;;;;;;6.40;99.90;;;;;;5119732;27;19916;-81
2021/01/26 12:56:30;;;;;;;;;;;6.40;99.90;;;;;;5098099;28;20367;-81
2021/01/26 12:58:55;;;;;;;;;;;6.60;99.90;;;;;;5117131;27;19914;-81
2021/01/26 13:01:21;;;;;;;;;;;6.70;99.80;;;;;;5098998;28;20020;-81
2021/01/26 13:03:46;;;;;;;;;;;6.60;99.80;;;;;;5116564;27;19911;-81
2021/01/26 13:06:12;;;;;;;;;;;6.50;99.10;;;;;;5097931;27;19923;-82
2021/01/26 13:08:37;;;;;;;;;;;6.50;99.10;;;;;;5115190;28;19907;-81
2021/01/26 13:11:02;;;;;;;;;;;6.50;99.00;;;;;;5119872;27;19914;-81
2021/01/26 13:13:28;;;;;;;;;;;6.50;98.80;;;;;;5118020;27;20325;-81
2021/01/26 13:15:54;;;;;;;;;;;6.40;98.60;;;;;;5099134;28;19911;-82
2021/01/26 13:18:19;;;;;;;;;;;6.40;99.00;;;;;;5124397;27;19912;-81
2021/01/26 13:20:45;;;;;;;;;;;6.30;99.10;;;;;;5119274;27;19991;-81
2021/01/26 13:23:10;;;;;;;;;;;6.30;99.00;;;;;;5113787;27;19908;-82
2021/01/26 13:25:36;;;;;;;;;;;6.20;99.00;;;;;;5119819;27;19907;-82
2021/01/26 13:28:02;;;;;;;;;;;6.20;99.20;;;;;;5129427;27;19915;-81
2021/01/26 13:30:29;;;;;;;;;;;6.30;99.20;;;;;;5104469;28;19954;-82
2021/01/26 13:32:54;;;;;;;;;;;6.20;99.40;;;;;;5119798;27;19915;-82
2021/01/26 13:35:27;;;;;;;;;;;6.20;99.60;;;;;;5117446;27;19912;-82
2021/01/26 13:37:53;;;;;;;;;;;6.20;99.70;;;;;;5099583;27;19907;-81
2021/01/26 13:40:19;;;;;;;;;;;6.20;99.90;;;;;;5105631;27;19976;-82
2021/01/26 13:42:45;;;;;;;;;;;6.20;99.90;;;;;;5132835;27;19914;-82
2021/01/26 13:45:11;;;;;;;;;;;6.30;99.90;;;;;;5120790;27;19912;-81
2021/01/26 13:47:37;;;;;;;;;;;6.30;99.90;;;;;;5127828;27;19937;-81
2021/01/26 13:50:04;;;;;;;;;;;6.40;99.90;;;;;;5131758;27;19915;-81
2021/01/26 13:52:29;;;;;;;;;;;6.30;99.90;;;;;;5104525;28;20015;-81
2021/01/26 13:54:55;;;;;;;;;;;6.30;99.90;;;;;;5121012;27;19995;-81
2021/01/26 13:57:20;;;;;;;;;;;6.20;99.90;;;;;;5109880;27;19911;-81
2021/01/26 13:59:46;;;;;;;;;;;6.20;99.90;;;;;;5135014;27;19974;-82
2021/01/26 14:02:11;;;;;;;;;;;6.20;99.90;;;;;;5121693;27;19912;-81
2021/01/26 14:04:37;;;;;;;;;;;6.20;99.90;;;;;;5130809;27;19931;-82
2021/01/26 14:07:02;;;;;;;;;;;6.10;99.90;;;;;;5125263;27;19935;-81
2021/01/26 14:09:29;;;;;;;;;;;6.10;99.90;;;;;;5122008;27;19907;-82
2021/01/26 14:11:54;;;;;;;;;;;6.20;99.90;;;;;;5128673;27;19963;-82
2021/01/26 14:14:20;;;;;;;;;;;6.20;99.90;;;;;;5121068;27;19947;-82
2021/01/26 14:16:46;;;;;;;;;;;6.20;99.90;;;;;;5101420;28;20335;-81
2021/01/26 14:19:12;;;;;;;;;;;6.20;99.90;;;;;;5112389;27;19907;-82
2021/01/26 14:21:38;;;;;;;;;;;6.10;99.90;;;;;;5115570;27;20251;-81
2021/01/26 14:24:04;;;;;;;;;;;6.10;99.90;;;;;;5115836;27;19908;-81
2021/01/26 14:26:29;;;;;;;;;;;6.10;99.90;;;;;;5122998;27;20462;-82
2021/01/26 14:28:54;;;;;;;;;;;6.20;99.90;;;;;;5121376;27;19915;-82
2021/01/26 14:31:20;;;;;;;;;;;6.50;99.80;;;;;;5129047;27;19915;-81
2021/01/26 14:33:45;;;;;;;;;;;6.80;99.00;;;;;;5126113;27;20260;-81
2021/01/26 14:36:11;;;;;;;;;;;6.90;98.20;;;;;;5123313;27;19912;-81
2021/01/26 14:38:39;;;;;;;;;;;7.10;97.40;;;;;;5124125;27;20255;-82
2021/01/26 14:41:05;;;;;;;;;;;7.40;96.50;;;;;;5096879;27;19907;-82
2021/01/26 14:43:31;;;;;;;;;;;7.40;95.90;;;;;;5125760;27;20278;-81
2021/01/26 14:45:58;;;;;;;;;;;7.20;95.20;;;;;;5125296;27;19907;-82